OIZI  Iran Shahr  Airport

Iranshahr, Iran

Add Bookmark
ICAO OIZI
Type Airport
Status Operational
Latitude
27° 14' 9" N
27.236099
Longitude
60° 43' 12" E
60.720001
Local (GMT +4.5 ) UTC
Aug 26, 2016 09:23 am Aug 26, 2016 04:53
Sunrise-Sunset Local UTC
Begin Civil Twilight 05:38 am 01:08
Sunrise 06:02 am 01:32
Sunset 06:54 pm 14:24
End Civil Twilight 07:18 pm 14:48
VFR
VFR
MVFR
MVFR
IFR
IFR
LIFR
LIFR
Unknown
Unavailable

Current Weather

METAR Observed VFR
OIZI 260400Z 00000KT CAVOK 31/M05 Q1011 Fri, Aug 26, 2016 @ 04:00 UTC
(53 Minutes ago)
Visual Flight Rules
Wind Visibility Conditions
Calm 10 km or more
  • No significant weather
Temperatures Readings Precipitation
Current Temp
31°C
88°F
Dewpoint
-5°C
23°F
Humidity 9%
Altimeter 29.85" Hg
Sea Level Pressure 1,011 mb
Field Elevation
591 m
1,939 ft
None Recorded
-
-

CheckWX.com is intended as a tool to help pilots better visualize weather data. It is not intended as a substitute for an official weather briefing obtained from a Flight Service Station. CheckWX.com does not meet the FAA requirements for an official pre-flight weather briefing. Therefore, it's important that pilots still call and obtain an official FSS pre-flight weather briefing.

© 2007-2016 CheckWX.com
04:53:42 UTC